Time;durP1;ratioP1;P1;durP2;ratioP2;P2;SDS_P1;SDS_P2;PMS_P1;PMS_P2;Temp;Humidity;BMP_temperature;BMP_pressure;BME280_temperature;BME280_humidity;BME280_pressure;Samples;Min_cycle;Max_cycle;Signal;HPM_P1;HPM_P2
2023/03/02 00:02:22;;;;;;;7.77;2.80;;;6.90;99.90;;;;;;5029088;28;20292;-59
2023/03/02 00:04:52;;;;;;;8.80;2.50;;;6.90;99.90;;;;;;5029359;28;20189;-59
2023/03/02 00:07:26;;;;;;;10.33;2.57;;;6.80;99.90;;;;;;5028839;28;20225;-62
2023/03/02 00:09:53;;;;;;;8.87;2.97;;;6.80;99.90;;;;;;5011993;28;20183;-59
2023/03/02 00:12:18;;;;;;;4.13;2.17;;;6.80;99.90;;;;;;5029169;28;20170;-58
2023/03/02 00:14:44;;;;;;;8.00;2.97;;;6.70;99.90;;;;;;5029711;28;20170;-59
2023/03/02 00:17:10;;;;;;;8.33;3.30;;;6.70;99.90;;;;;;5030406;28;20537;-58
2023/03/02 00:19:36;;;;;;;9.23;2.73;;;6.70;99.90;;;;;;5030229;28;20178;-60
2023/03/02 00:22:02;;;;;;;9.70;3.90;;;6.70;99.90;;;;;;5029208;28;20807;-59
2023/03/02 00:24:28;;;;;;;12.33;3.87;;;6.70;99.90;;;;;;5030230;28;20186;-59
2023/03/02 00:26:54;;;;;;;9.10;3.30;;;6.70;99.90;;;;;;5029796;28;20316;-58
2023/03/02 00:29:19;;;;;;;9.63;3.43;;;6.70;99.90;;;;;;5011418;28;20243;-58
2023/03/02 00:31:45;;;;;;;7.30;3.67;;;6.70;99.90;;;;;;5029818;28;20547;-58
2023/03/02 00:34:10;;;;;;;7.37;3.50;;;6.70;99.90;;;;;;5029860;28;20205;-58
2023/03/02 00:36:36;;;;;;;7.93;3.03;;;6.70;99.90;;;;;;5011512;28;20189;-57
2023/03/02 00:39:03;;;;;;;11.97;3.03;;;6.60;99.90;;;;;;5029861;28;20174;-58
2023/03/02 00:41:29;;;;;;;8.53;2.57;;;6.60;99.90;;;;;;5029239;28;20259;-58
2023/03/02 00:43:55;;;;;;;6.60;2.90;;;6.90;99.90;;;;;;5020428;28;20214;-59
2023/03/02 00:46:23;;;;;;;8.00;2.53;;;6.60;99.90;;;;;;5029400;28;20292;-58
2023/03/02 00:48:49;;;;;;;8.50;2.67;;;7.00;99.90;;;;;;5029036;28;20232;-59
2023/03/02 00:51:15;;;;;;;11.70;2.50;;;8.10;99.90;;;;;;5029438;28;20181;-58
2023/03/02 00:53:41;;;;;;;8.53;2.70;;;6.60;99.90;;;;;;5028858;28;20178;-59
2023/03/02 00:56:07;;;;;;;14.07;2.80;;;6.70;99.90;;;;;;5029504;28;20228;-59
2023/03/02 00:58:33;;;;;;;7.73;2.37;;;6.50;99.90;;;;;;5029763;28;20428;-59
2023/03/02 01:01:05;;;;;;;7.20;2.47;;;6.60;99.90;;;;;;5029160;28;20194;-59
2023/03/02 01:03:31;;;;;;;7.57;2.30;;;6.50;99.90;;;;;;5027711;28;20178;-58
2023/03/02 01:05:57;;;;;;;8.67;2.30;;;6.60;99.90;;;;;;5011742;28;20571;-58
2023/03/02 01:08:24;;;;;;;6.73;2.30;;;6.50;99.90;;;;;;5029221;28;20775;-56
2023/03/02 01:10:51;;;;;;;8.00;2.57;;;6.50;99.90;;;;;;5029175;28;20181;-58
2023/03/02 01:13:17;;;;;;;8.20;2.83;;;6.50;99.90;;;;;;5029388;28;20174;-58
2023/03/02 01:15:43;;;;;;;9.33;2.50;;;6.50;99.90;;;;;;5028522;28;20205;-58
2023/03/02 01:18:08;;;;;;;9.33;2.97;;;6.40;99.90;;;;;;5028911;28;20201;-58
2023/03/02 01:20:34;;;;;;;10.37;2.47;;;6.50;99.90;;;;;;5028240;28;20579;-58
2023/03/02 01:23:00;;;;;;;9.63;2.60;;;6.50;99.90;;;;;;5028985;28;20185;-58
2023/03/02 01:25:25;;;;;;;6.87;2.37;;;6.30;99.90;;;;;;5032614;28;20483;-59
2023/03/02 01:27:51;;;;;;;6.20;2.57;;;6.00;99.90;;;;;;5014584;28;20182;-58
2023/03/02 01:30:16;;;;;;;6.40;2.23;;;6.50;99.90;;;;;;5033060;28;20567;-58
2023/03/02 01:32:42;;;;;;;10.77;2.60;;;6.50;99.90;;;;;;5033351;28;20178;-58
2023/03/02 01:35:08;;;;;;;6.40;2.10;;;6.40;99.90;;;;;;5032498;28;20223;-58
2023/03/02 01:37:34;;;;;;;13.43;2.73;;;6.40;99.90;;;;;;5032964;28;20308;-58
2023/03/02 01:40:05;;;;;;;8.50;2.50;;;6.30;99.90;;;;;;5025428;28;20340;-58
2023/03/02 01:42:37;;;;;;;8.97;2.50;;;6.40;99.90;;;;;;5047264;28;20173;-58
2023/03/02 01:45:03;;;;;;;7.27;2.50;;;6.10;99.90;;;;;;5031850;28;20202;-58
2023/03/02 01:47:38;;;;;;;5.10;2.50;;;6.30;99.90;;;;;;5030825;28;20210;-58
2023/03/02 01:50:25;;;;;;;10.87;2.40;;;6.30;99.90;;;;;;5031675;28;20177;-58
2023/03/02 01:52:52;;;;;;;4.80;2.37;;;6.30;99.90;;;;;;5031242;28;20221;-58
2023/03/02 01:55:23;;;;;;;10.03;2.40;;;6.30;99.90;;;;;;5032033;28;20707;-58
2023/03/02 01:57:52;;;;;;;7.70;2.57;;;6.30;99.90;;;;;;5031858;28;20174;-58
2023/03/02 02:00:22;;;;;;;8.33;2.67;;;6.30;99.90;;;;;;5032563;28;20182;-58
2023/03/02 02:02:50;;;;;;;7.73;3.00;;;6.30;99.90;;;;;;5032362;28;20181;-58
2023/03/02 02:05:22;;;;;;;6.53;2.63;;;6.30;99.90;;;;;;5031894;28;20166;-58
2023/03/02 02:07:48;;;;;;;10.43;2.33;;;6.30;99.90;;;;;;5032111;28;20174;-57
2023/03/02 02:10:14;;;;;;;6.23;2.20;;;6.30;99.90;;;;;;5031779;28;20594;-58
2023/03/02 02:12:39;;;;;;;7.70;2.70;;;6.30;99.90;;;;;;5031561;28;20181;-58
2023/03/02 02:15:06;;;;;;;8.90;2.50;;;6.30;99.90;;;;;;5032371;28;20264;-58
2023/03/02 02:17:31;;;;;;;8.10;2.33;;;6.30;99.90;;;;;;5032444;28;20173;-57
2023/03/02 02:20:18;;;;;;;9.43;2.20;;;6.30;99.90;;;;;;5032078;28;20648;-58
2023/03/02 02:23:24;;;;;;;7.03;2.40;;;6.30;99.90;;;;;;5031940;28;20204;-58
2023/03/02 02:25:57;;;;;;;8.70;2.20;;;6.30;99.90;;;;;;5025148;28;20284;-58
2023/03/02 02:28:41;;;;;;;5.83;2.23;;;6.30;99.90;;;;;;5031298;28;20232;-58
2023/03/02 02:31:32;;;;;;;5.43;2.17;;;6.30;99.90;;;;;;5030672;28;20669;-58
2023/03/02 02:34:04;;;;;;;11.20;2.63;;;6.30;99.90;;;;;;5024279;28;20185;-58
2023/03/02 02:36:35;;;;;;;6.53;2.20;;;6.30;99.90;;;;;;5030059;28;20648;-58
2023/03/02 02:39:04;;;;;;;7.10;2.13;;;6.20;99.90;;;;;;5030885;28;20186;-58
2023/03/02 02:41:34;;;;;;;6.20;1.80;;;6.20;99.90;;;;;;5039502;28;20367;-58
2023/03/02 02:44:00;;;;;;;5.83;2.00;;;6.20;99.90;;;;;;5037840;28;20642;-58
2023/03/02 02:46:26;;;;;;;9.00;2.13;;;6.30;99.90;;;;;;5025758;28;20217;-58
2023/03/02 02:48:52;;;;;;;7.90;2.37;;;6.30;99.90;;;;;;5023477;28;20238;-58
2023/03/02 02:51:25;;;;;;;7.87;2.67;;;6.40;99.90;;;;;;5030953;28;20652;-58
2023/03/02 02:53:57;;;;;;;5.47;2.00;;;6.20;99.90;;;;;;5031389;28;20193;-58
2023/03/02 02:56:37;;;;;;;9.43;2.30;;;6.10;99.90;;;;;;5031367;28;20210;-58
2023/03/02 02:59:22;;;;;;;4.80;2.10;;;6.30;99.90;;;;;;5031237;28;20186;-58
2023/03/02 03:01:49;;;;;;;7.33;2.70;;;6.30;99.90;;;;;;5030781;28;20253;-58
2023/03/02 03:04:19;;;;;;;6.63;2.20;;;6.30;99.90;;;;;;5029937;28;20293;-58
2023/03/02 03:07:09;;;;;;;6.90;2.53;;;6.20;99.90;;;;;;5031400;28;20218;-58
2023/03/02 03:09:34;;;;;;;6.83;3.17;;;6.20;99.90;;;;;;5029718;28;20589;-58
2023/03/02 03:12:16;;;;;;;13.57;2.93;;;6.20;99.90;;;;;;5030784;28;20248;-58
2023/03/02 03:14:43;;;;;;;8.57;2.80;;;6.20;99.90;;;;;;5029166;28;20182;-58
2023/03/02 03:17:11;;;;;;;7.10;3.07;;;6.20;99.90;;;;;;5030504;28;20186;-58
2023/03/02 03:19:40;;;;;;;7.03;2.90;;;6.20;99.90;;;;;;5012454;28;20569;-58
2023/03/02 03:22:06;;;;;;;13.90;2.93;;;6.20;99.90;;;;;;5029822;28;20182;-58
2023/03/02 03:24:33;;;;;;;8.60;3.30;;;6.20;99.90;;;;;;5026085;28;20205;-58
2023/03/02 03:27:04;;;;;;;5.07;3.00;;;6.30;99.90;;;;;;5024472;28;20278;-58
2023/03/02 03:29:30;;;;;;;9.10;3.00;;;6.20;99.90;;;;;;5018702;28;20244;-58
2023/03/02 03:31:57;;;;;;;7.40;2.97;;;6.20;99.90;;;;;;5026162;28;20169;-58
2023/03/02 03:34:23;;;;;;;9.30;3.20;;;6.20;99.90;;;;;;5029304;28;20162;-58
2023/03/02 03:36:49;;;;;;;11.50;3.33;;;6.20;99.90;;;;;;5029897;28;20242;-58
2023/03/02 03:39:16;;;;;;;10.17;3.33;;;6.20;99.90;;;;;;5029926;28;20166;-58
2023/03/02 03:41:42;;;;;;;11.43;3.40;;;6.20;99.90;;;;;;5028996;28;20201;-58
2023/03/02 03:44:08;;;;;;;7.60;3.33;;;6.20;99.90;;;;;;5029459;28;20186;-58
2023/03/02 03:46:34;;;;;;;9.97;3.40;;;6.20;99.90;;;;;;5029720;28;20312;-56
2023/03/02 03:49:00;;;;;;;11.60;3.50;;;6.20;99.90;;;;;;5030112;28;20261;-58
2023/03/02 03:51:26;;;;;;;7.20;3.07;;;6.20;99.90;;;;;;5012448;28;20225;-58
2023/03/02 03:54:00;;;;;;;10.87;3.30;;;6.20;99.90;;;;;;5030608;28;20178;-59
2023/03/02 03:56:33;;;;;;;7.23;3.07;;;6.10;99.90;;;;;;5029709;28;20292;-58
2023/03/02 03:59:05;;;;;;;7.27;3.30;;;6.20;99.90;;;;;;5029851;28;20644;-59
2023/03/02 04:01:40;;;;;;;6.57;2.73;;;6.10;99.90;;;;;;5011827;28;20189;-59
2023/03/02 04:04:09;;;;;;;8.57;3.43;;;6.20;99.90;;;;;;5007110;28;20255;-59
2023/03/02 04:06:35;;;;;;;8.77;3.07;;;6.10;99.90;;;;;;5012477;28;20222;-59
2023/03/02 04:09:03;;;;;;;7.63;2.97;;;6.10;99.90;;;;;;5026973;28;20178;-58
2023/03/02 04:11:31;;;;;;;8.23;3.17;;;6.00;99.90;;;;;;5029692;28;20239;-57
2023/03/02 04:13:57;;;;;;;10.97;3.63;;;6.10;99.90;;;;;;5029684;28;20174;-57
2023/03/02 04:16:23;;;;;;;7.80;3.17;;;6.10;99.90;;;;;;5029106;28;20185;-59
2023/03/02 04:18:49;;;;;;;6.53;3.07;;;6.30;99.90;;;;;;5028768;28;20216;-57
2023/03/02 04:21:14;;;;;;;6.37;3.10;;;6.10;99.90;;;;;;5029654;28;20178;-59
2023/03/02 04:23:40;;;;;;;10.10;3.40;;;6.10;99.90;;;;;;5029492;28;20178;-59
2023/03/02 04:26:05;;;;;;;9.53;3.20;;;6.40;99.90;;;;;;5005302;28;20960;-59
2023/03/02 04:28:32;;;;;;;9.37;2.90;;;6.10;99.90;;;;;;5029405;28;20606;-56
2023/03/02 04:30:57;;;;;;;6.80;2.87;;;6.10;99.90;;;;;;5030134;28;20178;-59
2023/03/02 04:33:23;;;;;;;7.07;2.70;;;6.10;99.90;;;;;;5029232;28;20620;-59
2023/03/02 04:35:49;;;;;;;6.80;3.10;;;6.20;99.90;;;;;;5029902;28;20231;-59
2023/03/02 04:38:14;;;;;;;11.27;2.90;;;6.10;99.90;;;;;;5029262;28;20228;-59
2023/03/02 04:40:40;;;;;;;8.40;2.70;;;6.10;99.90;;;;;;5028571;28;20264;-59
2023/03/02 04:43:06;;;;;;;7.97;2.60;;;6.10;99.90;;;;;;5028059;28;20184;-60
2023/03/02 04:45:32;;;;;;;6.67;3.00;;;6.10;99.90;;;;;;5030120;28;20205;-59
2023/03/02 04:47:58;;;;;;;6.37;2.57;;;6.00;99.90;;;;;;5029759;28;20186;-59
2023/03/02 04:50:24;;;;;;;5.83;2.70;;;6.10;99.90;;;;;;5029634;28;20185;-59
2023/03/02 04:52:52;;;;;;;8.57;3.00;;;6.10;99.90;;;;;;5024877;28;20658;-58
2023/03/02 04:55:20;;;;;;;6.67;2.87;;;5.90;99.90;;;;;;5027259;28;20188;-58
2023/03/02 04:57:46;;;;;;;7.97;2.63;;;6.00;99.90;;;;;;5028114;28;20667;-58
2023/03/02 05:00:13;;;;;;;7.30;2.70;;;6.00;99.90;;;;;;5033152;28;20178;-58
2023/03/02 05:02:40;;;;;;;5.50;2.60;;;6.00;99.90;;;;;;5033687;28;20178;-58
2023/03/02 05:05:06;;;;;;;5.23;2.67;;;6.00;99.90;;;;;;5033217;28;20170;-59
2023/03/02 05:07:32;;;;;;;10.27;2.97;;;6.00;99.90;;;;;;5032597;28;20220;-58
2023/03/02 05:09:57;;;;;;;7.37;2.50;;;6.00;99.90;;;;;;5033044;28;20583;-59
2023/03/02 05:12:23;;;;;;;6.23;2.40;;;6.00;99.90;;;;;;5033291;28;20178;-59
2023/03/02 05:14:49;;;;;;;6.67;2.50;;;6.00;99.90;;;;;;5032774;28;20228;-58
2023/03/02 05:17:15;;;;;;;8.13;2.70;;;6.00;99.90;;;;;;5032757;28;20170;-58
2023/03/02 05:19:40;;;;;;;4.90;2.60;;;6.00;99.90;;;;;;5027530;28;20400;-59
2023/03/02 05:22:06;;;;;;;3.87;2.10;;;6.10;99.90;;;;;;5030935;28;20173;-59
2023/03/02 05:24:32;;;;;;;5.10;2.50;;;6.00;99.90;;;;;;5031641;28;20188;-58
2023/03/02 05:26:57;;;;;;;5.90;2.30;;;6.00;99.90;;;;;;5033344;28;20221;-59
2023/03/02 05:29:23;;;;;;;5.60;2.60;;;6.10;99.90;;;;;;5032332;28;20178;-59
2023/03/02 05:31:48;;;;;;;7.80;2.20;;;6.00;99.90;;;;;;5032847;28;20239;-57
2023/03/02 05:34:16;;;;;;;8.80;2.57;;;6.10;99.90;;;;;;5032596;28;20348;-57
2023/03/02 05:36:43;;;;;;;4.97;2.60;;;6.00;99.90;;;;;;5032513;28;20184;-57
2023/03/02 05:39:10;;;;;;;6.17;2.60;;;6.00;99.90;;;;;;5032651;28;20170;-57
2023/03/02 05:41:36;;;;;;;5.60;2.40;;;6.10;99.90;;;;;;5031219;28;20252;-58
2023/03/02 05:44:02;;;;;;;4.27;2.40;;;6.00;99.90;;;;;;5032141;28;20169;-57
2023/03/02 05:46:28;;;;;;;6.47;2.40;;;6.00;99.90;;;;;;5030925;28;20213;-57
2023/03/02 05:48:53;;;;;;;6.83;2.30;;;6.00;99.90;;;;;;5032616;28;20583;-57
2023/03/02 05:51:19;;;;;;;7.40;2.20;;;6.00;99.90;;;;;;5031145;28;20174;-57
2023/03/02 05:53:45;;;;;;;4.47;2.47;;;6.00;99.90;;;;;;5013094;28;20177;-57
2023/03/02 05:56:11;;;;;;;6.23;2.60;;;6.00;99.90;;;;;;5031423;28;20765;-57
2023/03/02 05:58:36;;;;;;;6.60;2.10;;;6.10;99.90;;;;;;5031182;28;20165;-57
2023/03/02 06:01:07;;;;;;;4.50;2.47;;;6.00;99.90;;;;;;5031140;28;20641;-58
2023/03/02 06:03:33;;;;;;;5.83;2.27;;;6.00;99.90;;;;;;5030686;28;20239;-58
2023/03/02 06:05:59;;;;;;;8.50;2.67;;;6.20;99.90;;;;;;5031408;28;20649;-57
2023/03/02 06:08:24;;;;;;;5.13;2.50;;;5.90;99.90;;;;;;5031390;28;20190;-58
2023/03/02 06:10:55;;;;;;;7.83;2.73;;;5.90;99.90;;;;;;5012770;28;20170;-57
2023/03/02 06:13:20;;;;;;;5.90;2.50;;;5.90;99.90;;;;;;5030656;28;20261;-57
2023/03/02 06:15:46;;;;;;;5.90;2.53;;;5.90;99.90;;;;;;5031233;28;20293;-58
2023/03/02 06:18:12;;;;;;;4.43;2.53;;;5.90;99.90;;;;;;5031597;28;20847;-57
2023/03/02 06:20:39;;;;;;;8.70;2.83;;;5.90;99.90;;;;;;5030530;28;20649;-56
2023/03/02 06:23:04;;;;;;;4.23;2.40;;;6.00;99.90;;;;;;5031581;28;20821;-56
2023/03/02 06:25:30;;;;;;;4.07;2.70;;;5.80;99.90;;;;;;5030632;28;20216;-58
2023/03/02 06:27:56;;;;;;;5.33;2.60;;;5.90;99.90;;;;;;5031532;28;20186;-58
2023/03/02 06:30:24;;;;;;;4.53;2.73;;;5.90;99.90;;;;;;5030440;28;20233;-58
2023/03/02 06:32:50;;;;;;;5.00;2.50;;;5.80;99.90;;;;;;5030746;28;20170;-56
2023/03/02 06:35:16;;;;;;;5.17;2.67;;;5.80;99.90;;;;;;5030462;28;20532;-57
2023/03/02 06:37:42;;;;;;;5.33;2.60;;;5.90;99.90;;;;;;5030486;28;20634;-58
2023/03/02 06:40:12;;;;;;;7.33;2.67;;;5.80;99.90;;;;;;5030676;28;20316;-58
2023/03/02 06:42:40;;;;;;;6.23;2.63;;;5.90;99.90;;;;;;5030343;28;20648;-58
2023/03/02 06:45:06;;;;;;;4.53;2.63;;;5.80;99.90;;;;;;5030582;28;20656;-58
2023/03/02 06:47:32;;;;;;;7.50;2.90;;;5.80;99.90;;;;;;5030622;28;20213;-58
2023/03/02 06:49:58;;;;;;;4.47;2.83;;;5.80;99.90;;;;;;5030534;28;20260;-58
2023/03/02 06:52:25;;;;;;;7.00;2.90;;;5.90;99.90;;;;;;5031132;28;20244;-58
2023/03/02 06:54:51;;;;;;;10.37;3.30;;;5.90;99.90;;;;;;5030877;28;20244;-58
2023/03/02 06:57:17;;;;;;;5.13;2.80;;;5.80;99.90;;;;;;5030380;28;20225;-58
2023/03/02 06:59:42;;;;;;;7.43;3.37;;;5.80;99.90;;;;;;5030129;28;20185;-58
2023/03/02 07:02:10;;;;;;;6.60;3.57;;;5.80;99.90;;;;;;5030677;28;20495;-58
2023/03/02 07:04:35;;;;;;;9.50;3.40;;;5.70;99.90;;;;;;5030597;28;20178;-57
2023/03/02 07:07:01;;;;;;;5.07;3.10;;;5.80;99.90;;;;;;5013304;28;20210;-57
2023/03/02 07:09:29;;;;;;;4.03;3.10;;;5.90;99.90;;;;;;5027337;28;20210;-58
2023/03/02 07:11:55;;;;;;;8.10;3.43;;;;;;;;;;5027474;28;20229;-60
2023/03/02 07:14:21;;;;;;;9.40;3.30;;;5.80;99.90;;;;;;5030385;28;20206;-57
2023/03/02 07:16:46;;;;;;;6.37;3.30;;;5.80;99.90;;;;;;5012478;28;20185;-57
2023/03/02 07:19:12;;;;;;;8.03;3.30;;;5.80;99.90;;;;;;5030198;28;20216;-57
2023/03/02 07:21:38;;;;;;;7.67;5.10;;;5.90;99.90;;;;;;5012350;28;20680;-58
2023/03/02 07:24:04;;;;;;;4.17;2.70;;;5.80;99.90;;;;;;5031038;28;20174;-57
2023/03/02 07:26:30;;;;;;;8.87;2.80;;;5.80;99.90;;;;;;5030858;28;20798;-57
2023/03/02 07:28:58;;;;;;;4.67;2.73;;;5.80;99.90;;;;;;5030512;28;20170;-58
2023/03/02 07:31:24;;;;;;;6.57;2.63;;;5.80;99.90;;;;;;5030533;28;20170;-58
2023/03/02 07:33:50;;;;;;;4.83;2.43;;;5.70;99.90;;;;;;5029856;28;20637;-58
2023/03/02 07:36:16;;;;;;;3.80;2.53;;;5.70;99.90;;;;;;5030837;28;20186;-58
2023/03/02 07:38:42;;;;;;;7.47;2.80;;;5.80;99.90;;;;;;5029774;28;20178;-57
2023/03/02 07:41:08;;;;;;;10.03;2.27;;;5.80;99.90;;;;;;5030053;28;20189;-58
2023/03/02 07:43:35;;;;;;;6.43;2.83;;;5.80;99.90;;;;;;5030143;28;20200;-56
2023/03/02 07:46:02;;;;;;;7.67;2.83;;;5.70;99.90;;;;;;5028078;28;20676;-56
2023/03/02 07:48:27;;;;;;;4.50;2.80;;;5.70;99.90;;;;;;5030522;28;20181;-56
2023/03/02 07:51:00;;;;;;;14.17;3.30;;;5.60;99.90;;;;;;5028738;28;20161;-57
2023/03/02 07:53:27;;;;;;;6.67;3.13;;;5.60;99.90;;;;;;5012252;28;20170;-56
2023/03/02 07:55:52;;;;;;;6.77;3.10;;;5.60;99.90;;;;;;5029734;28;20300;-57
2023/03/02 07:58:18;;;;;;;8.87;3.83;;;5.50;99.90;;;;;;5029509;28;20257;-57
2023/03/02 08:00:44;;;;;;;8.00;3.97;;;5.50;99.90;;;;;;5030426;28;20177;-57
2023/03/02 08:03:09;;;;;;;14.27;3.93;;;5.50;99.90;;;;;;5029959;28;20257;-57
2023/03/02 08:05:35;;;;;;;7.70;3.87;;;5.40;99.90;;;;;;5029535;28;20938;-56
2023/03/02 08:08:00;;;;;;;5.43;3.63;;;5.50;99.90;;;;;;5009997;28;20214;-57
2023/03/02 08:10:26;;;;;;;7.33;3.57;;;5.60;99.90;;;;;;5028747;28;20534;-57
2023/03/02 08:12:52;;;;;;;8.27;3.87;;;5.60;99.90;;;;;;5026994;28;20684;-57
2023/03/02 08:15:17;;;;;;;9.70;3.67;;;5.60;99.90;;;;;;5012110;28;20166;-57
2023/03/02 08:17:43;;;;;;;6.70;3.80;;;5.90;99.90;;;;;;5037462;28;20201;-57
2023/03/02 08:20:10;;;;;;;8.13;3.80;;;5.90;99.90;;;;;;5010540;28;20269;-57
2023/03/02 08:22:35;;;;;;;6.63;3.60;;;6.00;99.90;;;;;;5022553;28;20249;-57
2023/03/02 08:25:01;;;;;;;6.13;4.13;;;6.10;99.90;;;;;;5030223;28;20231;-58
2023/03/02 08:27:27;;;;;;;9.47;4.13;;;6.10;99.90;;;;;;5029249;28;20240;-57
2023/03/02 08:29:53;;;;;;;10.57;4.93;;;6.10;99.90;;;;;;5029810;28;20182;-57
2023/03/02 08:32:19;;;;;;;10.17;4.00;;;6.10;99.90;;;;;;5029975;28;20204;-57
2023/03/02 08:34:44;;;;;;;9.07;4.87;;;6.10;99.90;;;;;;5029089;28;20201;-57
2023/03/02 08:37:10;;;;;;;8.37;5.27;;;6.20;99.90;;;;;;5028137;28;20173;-57
2023/03/02 08:39:35;;;;;;;8.93;5.17;;;6.50;99.90;;;;;;5028915;28;20644;-57
2023/03/02 08:42:01;;;;;;;9.87;5.07;;;6.40;99.90;;;;;;5028346;28;20178;-58
2023/03/02 08:44:27;;;;;;;10.33;5.53;;;6.50;99.90;;;;;;5028119;28;20659;-57
2023/03/02 08:46:53;;;;;;;8.27;5.47;;;6.30;99.90;;;;;;5029476;28;20209;-58
2023/03/02 08:49:19;;;;;;;10.97;5.33;;;6.50;99.90;;;;;;5029536;28;20166;-57
2023/03/02 08:51:47;;;;;;;15.17;6.40;;;6.50;99.90;;;;;;5029877;28;20174;-57
2023/03/02 08:54:13;;;;;;;12.63;5.93;;;6.60;99.90;;;;;;5029653;28;20162;-58
2023/03/02 08:56:40;;;;;;;14.73;6.83;;;6.80;99.90;;;;;;5029253;28;20300;-57
2023/03/02 08:59:10;;;;;;;13.13;6.50;;;7.00;99.90;;;;;;5029290;28;20717;-58
2023/03/02 09:01:36;;;;;;;13.77;5.93;;;7.10;99.90;;;;;;5007253;28;20244;-57
2023/03/02 09:04:04;;;;;;;13.17;6.30;;;7.40;99.90;;;;;;5002869;28;20215;-57
2023/03/02 09:06:32;;;;;;;15.93;6.43;;;7.30;99.90;;;;;;5009378;28;20269;-57
2023/03/02 09:08:57;;;;;;;12.90;6.53;;;7.50;99.90;;;;;;5023720;28;20180;-58
2023/03/02 09:11:24;;;;;;;11.00;6.60;;;7.70;99.90;;;;;;5034362;28;20182;-58
2023/03/02 09:13:49;;;;;;;10.60;7.07;;;7.90;99.90;;;;;;5001262;28;20896;-56
2023/03/02 09:16:19;;;;;;;15.23;6.70;;;7.80;99.90;;;;;;5008933;28;20179;-56
2023/03/02 09:18:45;;;;;;;10.53;6.63;;;7.70;99.90;;;;;;5009518;28;20680;-56
2023/03/02 09:21:10;;;;;;;15.20;7.00;;;8.00;99.90;;;;;;5027679;28;20178;-56
2023/03/02 09:23:36;;;;;;;18.10;6.90;;;8.00;99.90;;;;;;5010235;28;20795;-57
2023/03/02 09:26:03;;;;;;;14.50;7.17;;;8.00;99.90;;;;;;5029017;28;20198;-57
2023/03/02 09:28:29;;;;;;;12.27;6.90;;;8.30;99.90;;;;;;5029107;28;20178;-57
2023/03/02 09:31:00;;;;;;;15.30;7.23;;;8.20;99.90;;;;;;5028629;28;20178;-57
2023/03/02 09:33:26;;;;;;;13.67;7.40;;;8.50;99.90;;;;;;5027999;28;20196;-57
2023/03/02 09:35:51;;;;;;;11.57;6.70;;;9.90;99.90;;;;;;5028573;28;20269;-57
2023/03/02 09:38:18;;;;;;;12.90;8.20;;;10.00;99.90;;;;;;5028924;28;20614;-56
2023/03/02 09:41:19;;;;;;;12.53;7.30;;;9.70;99.90;;;;;;5028816;28;20186;-56
2023/03/02 09:44:23;;;;;;;12.40;7.27;;;9.80;99.90;;;;;;4987742;28;20677;-56
2023/03/02 09:46:58;;;;;;;13.60;7.47;;;9.50;99.90;;;;;;5032601;28;20205;-56
2023/03/02 09:50:01;;;;;;;14.17;7.60;;;9.40;99.90;;;;;;5027295;28;20192;-57
2023/03/02 09:52:32;;;;;;;15.30;8.27;;;9.20;99.90;;;;;;5032581;28;20248;-57
2023/03/02 09:55:16;;;;;;;17.43;7.73;;;9.60;99.90;;;;;;5032182;28;20178;-58
2023/03/02 09:57:43;;;;;;;12.90;7.63;;;9.60;99.90;;;;;;5032477;28;20217;-57
2023/03/02 10:00:16;;;;;;;12.03;7.60;;;9.50;99.90;;;;;;5025372;28;20209;-58
2023/03/02 10:02:47;;;;;;;16.27;8.30;;;9.20;99.90;;;;;;5014037;28;20200;-57
2023/03/02 10:05:27;;;;;;;14.57;7.87;;;9.80;99.90;;;;;;5012857;28;20179;-57
2023/03/02 10:07:52;;;;;;;14.30;8.27;;;9.70;99.90;;;;;;5030892;28;20209;-57
2023/03/02 10:10:44;;;;;;;12.97;8.07;;;9.80;99.90;;;;;;5013039;28;20687;-57
2023/03/02 10:13:28;;;;;;;12.80;7.73;;;9.40;99.90;;;;;;5032074;28;20196;-57
2023/03/02 10:15:57;;;;;;;14.53;7.93;;;9.50;99.90;;;;;;5013677;28;20188;-57
2023/03/02 10:18:28;;;;;;;17.00;7.67;;;9.50;99.90;;;;;;5031723;28;20216;-57
2023/03/02 10:21:38;;;;;;;14.77;7.80;;;9.50;99.90;;;;;;5031293;28;20193;-57
2023/03/02 10:24:25;;;;;;;17.57;8.33;;;9.60;99.90;;;;;;4985191;28;20220;-57
2023/03/02 10:26:58;;;;;;;12.63;8.17;;;9.50;99.90;;;;;;5032089;28;20214;-57
2023/03/02 10:29:57;;;;;;;16.23;8.60;;;9.60;99.90;;;;;;5031543;28;20691;-57
2023/03/02 10:32:45;;;;;;;15.83;9.27;;;9.60;99.90;;;;;;5032146;28;20300;-56
2023/03/02 10:35:25;;;;;;;14.13;8.37;;;9.30;99.90;;;;;;5025734;28;20193;-57
2023/03/02 10:37:57;;;;;;;14.03;8.67;;;9.40;99.90;;;;;;5031603;28;20180;-57
2023/03/02 10:40:48;;;;;;;14.70;9.17;;;9.60;99.90;;;;;;5031895;28;20181;-57
2023/03/02 10:43:41;;;;;;;15.13;8.53;;;9.40;99.90;;;;;;5031444;28;20205;-57
2023/03/02 10:46:09;;;;;;;13.73;8.23;;;9.30;99.90;;;;;;5029821;28;20291;-56
2023/03/02 10:48:56;;;;;;;15.87;8.97;;;9.40;99.90;;;;;;5035089;28;20202;-57
2023/03/02 10:51:23;;;;;;;14.30;9.50;;;10.00;99.90;;;;;;5032182;28;20515;-57
2023/03/02 10:53:49;;;;;;;17.30;9.17;;;9.90;99.90;;;;;;5025503;28;20652;-58
2023/03/02 10:56:20;;;;;;;16.53;9.27;;;10.20;99.90;;;;;;5027222;28;20234;-57
2023/03/02 10:58:46;;;;;;;17.03;9.73;;;9.90;99.90;;;;;;5033557;28;20209;-57
2023/03/02 11:01:18;;;;;;;15.83;9.63;;;10.00;99.90;;;;;;5028037;28;20645;-57
2023/03/02 11:03:57;;;;;;;16.80;9.30;;;10.90;99.90;;;;;;5035230;28;20287;-56
2023/03/02 11:06:23;;;;;;;20.00;9.63;;;11.40;99.90;;;;;;4993126;28;20222;-57
2023/03/02 11:09:06;;;;;;;15.00;9.37;;;11.20;99.90;;;;;;5011255;28;20253;-57
2023/03/02 11:11:32;;;;;;;17.10;10.10;;;12.70;99.90;;;;;;5012285;28;20182;-57
2023/03/02 11:14:15;;;;;;;16.75;10.50;;;12.60;99.90;;;;;;5010608;28;20646;-57
2023/03/02 11:16:41;;;;;;;17.35;10.18;;;11.90;99.90;;;;;;5024543;28;20194;-57
2023/03/02 11:19:12;;;;;;;19.95;10.43;;;11.70;99.90;;;;;;5040521;28;20662;-57
2023/03/02 11:22:00;;;;;;;14.65;9.98;;;13.50;99.90;;;;;;5015483;28;20490;-57
2023/03/02 11:24:35;;;;;;;17.42;10.55;;;15.00;99.90;;;;;;5024965;28;20183;-58
2023/03/02 11:27:06;;;;;;;16.20;10.73;;;18.30;99.90;;;;;;5010100;28;20288;-60
2023/03/02 11:29:53;;;;;;;24.00;11.02;;;18.40;61.80;;;;;;5023519;28;20166;-57
2023/03/02 11:32:38;;;;;;;19.50;10.38;;;17.10;42.10;;;;;;5012339;28;20204;-58
2023/03/02 11:35:16;;;;;;;16.15;10.73;;;15.30;67.40;;;;;;5030162;28;20641;-58
2023/03/02 11:37:48;;;;;;;16.95;11.25;;;15.70;71.90;;;;;;5030578;28;20209;-57
2023/03/02 11:40:38;;;;;;;17.67;10.98;;;16.00;69.80;;;;;;5030318;28;20188;-57
2023/03/02 11:43:03;;;;;;;20.85;10.93;;;19.20;48.40;;;;;;5029379;28;20170;-58
2023/03/02 11:45:34;;;;;;;21.75;11.10;;;17.90;25.20;;;;;;5028983;28;20170;-58
2023/03/02 11:48:27;;;;;;;15.73;10.18;;;17.80;25.20;;;;;;5029915;28;20312;-58
2023/03/02 11:50:57;;;;;;;15.73;10.75;;;17.90;6.10;;;;;;5023699;28;20486;-57
2023/03/02 11:53:30;;;;;;;15.57;10.02;;;17.40;3.80;;;;;;5029523;28;20265;-59
2023/03/02 11:55:56;;;;;;;14.40;10.18;;;18.00;10.00;;;;;;5029588;28;20684;-58
2023/03/02 11:58:28;;;;;;;13.25;10.38;;;17.10;1.00;;;;;;5028895;28;20166;-58
2023/03/02 12:00:55;;;;;;;20.42;10.32;;;17.90;11.00;;;;;;5034620;28;20240;-58
2023/03/02 12:03:37;;;;;;;16.73;10.35;;;19.30;6.90;;;;;;5027545;28;20228;-58
2023/03/02 12:06:23;;;;;;;14.90;10.35;;;20.90;1.00;;;;;;5029088;28;20218;-59
2023/03/02 12:08:53;;;;;;;11.95;9.98;;;21.90;1.00;;;;;;5014718;28;20173;-58
2023/03/02 12:11:18;;;;;;;17.48;10.38;;;19.90;1.00;;;;;;5030193;28;20170;-58
2023/03/02 12:13:49;;;;;;;13.93;11.00;;;18.30;1.00;;;;;;5030114;28;20174;-58
2023/03/02 12:16:23;;;;;;;17.45;10.50;;;17.20;1.00;;;;;;5029613;28;20172;-58
2023/03/02 12:18:50;;;;;;;12.75;10.38;;;18.10;1.00;;;;;;5029469;28;20177;-58
2023/03/02 12:21:18;;;;;;;17.17;10.43;;;18.00;1.00;;;;;;5029755;28;20172;-58
2023/03/02 12:23:50;;;;;;;13.27;9.90;;;15.50;1.00;;;;;;5029476;28;20186;-58
2023/03/02 12:26:19;;;;;;;16.92;10.90;;;15.60;1.00;;;;;;5012777;28;20285;-58
2023/03/02 12:29:09;;;;;;;15.45;10.15;;;13.90;1.00;;;;;;5010169;28;20281;-58
2023/03/02 12:31:53;;;;;;;15.57;10.75;;;13.80;9.70;;;;;;5010364;28;20209;-59
2023/03/02 12:34:34;;;;;;;16.00;10.23;;;15.20;9.00;;;;;;5017344;28;20726;-58
2023/03/02 12:37:30;;;;;;;11.98;9.50;;;17.10;1.00;;;;;;5028169;28;20924;-59
2023/03/02 12:40:33;;;;;;;13.40;9.77;;;19.50;1.00;;;;;;5028405;28;20185;-59
2023/03/02 12:43:26;;;;;;;18.75;10.02;;;20.70;1.00;;;;;;5028612;28;20182;-59
2023/03/02 12:46:19;;;;;;;13.93;9.65;;;19.80;1.00;;;;;;5025317;28;20193;-59
2023/03/02 12:48:55;;;;;;;13.63;10.18;;;18.70;1.00;;;;;;5029583;28;20583;-59
2023/03/02 12:51:23;;;;;;;15.68;9.40;;;16.70;1.00;;;;;;5011346;28;20255;-59
2023/03/02 12:54:04;;;;;;;13.27;9.75;;;19.10;1.00;;;;;;5029275;28;20655;-60
2023/03/02 12:56:30;;;;;;;17.15;10.40;;;20.40;1.00;;;;;;5029453;28;20224;-59
2023/03/02 12:58:56;;;;;;;17.70;10.55;;;21.20;1.00;;;;;;5029792;28;20173;-59
2023/03/02 13:01:25;;;;;;;13.48;9.05;;;20.60;1.00;;;;;;5028378;28;20257;-60
2023/03/02 13:03:52;;;;;;;14.20;9.55;;;20.70;1.00;;;;;;5029890;28;20185;-59
2023/03/02 13:06:19;;;;;;;12.95;9.50;;;19.80;1.00;;;;;;5029787;28;20204;-59